sensor_id;sensor_type;location;lat;lon;timestamp;temperature;humidity
16964;DHT22;8598;50.508;10.436;2023-12-07T00:00:42;0.50;99.90
16964;DHT22;8598;50.508;10.436;2023-12-07T00:03:11;0.60;99.90
16964;DHT22;8598;50.508;10.436;2023-12-07T00:05:37;0.60;99.90
16964;DHT22;8598;50.508;10.436;2023-12-07T00:08:04;0.60;99.90
16964;DHT22;8598;50.508;10.436;2023-12-07T00:10:31;0.50;99.90
16964;DHT22;8598;50.508;10.436;2023-12-07T00:12:57;0.50;99.90
16964;DHT22;8598;50.508;10.436;2023-12-07T00:15:24;0.60;99.90
16964;DHT22;8598;50.508;10.436;2023-12-07T00:17:50;0.60;99.90
16964;DHT22;8598;50.508;10.436;2023-12-07T00:20:18;0.60;99.90
16964;DHT22;8598;50.508;10.436;2023-12-07T00:22:45;0.60;99.90
16964;DHT22;8598;50.508;10.436;2023-12-07T00:25:12;0.60;99.90
16964;DHT22;8598;50.508;10.436;2023-12-07T00:27:38;0.60;99.90
16964;DHT22;8598;50.508;10.436;2023-12-07T00:30:06;0.90;99.90
16964;DHT22;8598;50.508;10.436;2023-12-07T00:32:32;0.60;99.90
16964;DHT22;8598;50.508;10.436;2023-12-07T00:34:59;0.60;99.90
16964;DHT22;8598;50.508;10.436;2023-12-07T00:37:27;0.60;99.90
16964;DHT22;8598;50.508;10.436;2023-12-07T00:39:54;0.60;99.90
16964;DHT22;8598;50.508;10.436;2023-12-07T00:42:20;0.60;99.90
16964;DHT22;8598;50.508;10.436;2023-12-07T00:44:47;0.70;99.90
16964;DHT22;8598;50.508;10.436;2023-12-07T00:47:14;0.70;99.90
16964;DHT22;8598;50.508;10.436;2023-12-07T00:49:40;0.70;99.90
16964;DHT22;8598;50.508;10.436;2023-12-07T00:52:07;1.60;99.90
16964;DHT22;8598;50.508;10.436;2023-12-07T00:54:35;0.70;99.90
16964;DHT22;8598;50.508;10.436;2023-12-07T00:57:01;0.70;99.90
16964;DHT22;8598;50.508;10.436;2023-12-07T00:59:28;0.80;99.90
16964;DHT22;8598;50.508;10.436;2023-12-07T01:01:59;0.90;99.90
16964;DHT22;8598;50.508;10.436;2023-12-07T01:04:26;0.80;99.90
16964;DHT22;8598;50.508;10.436;2023-12-07T01:06:52;0.80;99.90
16964;DHT22;8598;50.508;10.436;2023-12-07T01:09:19;0.80;99.90
16964;DHT22;8598;50.508;10.436;2023-12-07T01:11:48;0.80;99.90
16964;DHT22;8598;50.508;10.436;2023-12-07T01:14:15;0.80;99.90
16964;DHT22;8598;50.508;10.436;2023-12-07T01:16:42;1.60;99.90
16964;DHT22;8598;50.508;10.436;2023-12-07T01:19:09;1.80;99.90
16964;DHT22;8598;50.508;10.436;2023-12-07T01:21:36;0.80;99.90
16964;DHT22;8598;50.508;10.436;2023-12-07T01:24:02;0.90;99.90
16964;DHT22;8598;50.508;10.436;2023-12-07T01:26:29;0.80;99.90
16964;DHT22;8598;50.508;10.436;2023-12-07T01:28:57;1.90;99.90
16964;DHT22;8598;50.508;10.436;2023-12-07T01:31:23;0.90;99.90
16964;DHT22;8598;50.508;10.436;2023-12-07T01:33:50;1.50;99.90
16964;DHT22;8598;50.508;10.436;2023-12-07T01:36:16;0.80;99.90
16964;DHT22;8598;50.508;10.436;2023-12-07T01:38:42;0.80;99.90
16964;DHT22;8598;50.508;10.436;2023-12-07T01:41:09;0.80;99.90
16964;DHT22;8598;50.508;10.436;2023-12-07T01:43:36;0.80;99.90
16964;DHT22;8598;50.508;10.436;2023-12-07T01:46:04;0.90;99.90
16964;DHT22;8598;50.508;10.436;2023-12-07T01:48:31;0.90;99.90
16964;DHT22;8598;50.508;10.436;2023-12-07T01:50:58;0.80;99.90
16964;DHT22;8598;50.508;10.436;2023-12-07T01:53:25;0.80;99.90
16964;DHT22;8598;50.508;10.436;2023-12-07T01:55:53;0.80;99.90
16964;DHT22;8598;50.508;10.436;2023-12-07T01:58:20;1.50;99.90
16964;DHT22;8598;50.508;10.436;2023-12-07T02:00:47;1.60;99.90
16964;DHT22;8598;50.508;10.436;2023-12-07T02:03:17;0.70;99.90
16964;DHT22;8598;50.508;10.436;2023-12-07T02:05:47;0.80;99.90
16964;DHT22;8598;50.508;10.436;2023-12-07T02:08:14;0.80;99.90
16964;DHT22;8598;50.508;10.436;2023-12-07T02:10:41;0.80;99.90
16964;DHT22;8598;50.508;10.436;2023-12-07T02:13:08;0.80;99.90
16964;DHT22;8598;50.508;10.436;2023-12-07T02:15:35;0.80;99.90
16964;DHT22;8598;50.508;10.436;2023-12-07T02:18:06;0.80;99.90
16964;DHT22;8598;50.508;10.436;2023-12-07T02:20:39;0.80;99.90
16964;DHT22;8598;50.508;10.436;2023-12-07T02:23:08;0.80;99.90
16964;DHT22;8598;50.508;10.436;2023-12-07T02:25:37;0.80;99.90
16964;DHT22;8598;50.508;10.436;2023-12-07T02:28:08;0.80;99.90
16964;DHT22;8598;50.508;10.436;2023-12-07T02:30:34;0.80;99.90
16964;DHT22;8598;50.508;10.436;2023-12-07T02:33:01;0.80;99.90
16964;DHT22;8598;50.508;10.436;2023-12-07T02:35:29;0.80;99.90
16964;DHT22;8598;50.508;10.436;2023-12-07T02:37:56;0.80;99.90
16964;DHT22;8598;50.508;10.436;2023-12-07T02:40:25;0.80;99.90
16964;DHT22;8598;50.508;10.436;2023-12-07T02:42:54;0.80;99.90
16964;DHT22;8598;50.508;10.436;2023-12-07T02:45:22;0.80;99.90
16964;DHT22;8598;50.508;10.436;2023-12-07T02:47:51;0.80;99.90
16964;DHT22;8598;50.508;10.436;2023-12-07T02:50:17;0.80;99.90
16964;DHT22;8598;50.508;10.436;2023-12-07T02:52:44;0.80;99.90
16964;DHT22;8598;50.508;10.436;2023-12-07T02:55:11;0.90;99.90
16964;DHT22;8598;50.508;10.436;2023-12-07T02:57:38;0.90;99.90
16964;DHT22;8598;50.508;10.436;2023-12-07T03:00:06;1.80;99.90
16964;DHT22;8598;50.508;10.436;2023-12-07T03:02:36;0.90;99.90
16964;DHT22;8598;50.508;10.436;2023-12-07T03:05:03;0.90;99.90
16964;DHT22;8598;50.508;10.436;2023-12-07T03:07:30;0.90;99.90
16964;DHT22;8598;50.508;10.436;2023-12-07T03:09:57;0.90;99.90
16964;DHT22;8598;50.508;10.436;2023-12-07T03:12:23;0.90;99.90
16964;DHT22;8598;50.508;10.436;2023-12-07T03:14:50;0.90;99.90
16964;DHT22;8598;50.508;10.436;2023-12-07T03:17:16;0.90;99.90
16964;DHT22;8598;50.508;10.436;2023-12-07T03:19:44;0.90;99.90
16964;DHT22;8598;50.508;10.436;2023-12-07T03:22:11;0.90;99.90
16964;DHT22;8598;50.508;10.436;2023-12-07T03:24:39;1.30;99.90
16964;DHT22;8598;50.508;10.436;2023-12-07T03:27:06;1.00;99.90
16964;DHT22;8598;50.508;10.436;2023-12-07T03:29:33;1.30;99.90
16964;DHT22;8598;50.508;10.436;2023-12-07T03:31:59;0.90;99.90
16964;DHT22;8598;50.508;10.436;2023-12-07T03:34:26;1.00;99.90
16964;DHT22;8598;50.508;10.436;2023-12-07T03:36:54;0.90;99.90
16964;DHT22;8598;50.508;10.436;2023-12-07T03:39:20;0.90;99.90
16964;DHT22;8598;50.508;10.436;2023-12-07T03:41:48;0.90;99.90
16964;DHT22;8598;50.508;10.436;2023-12-07T03:44:15;1.70;99.90
16964;DHT22;8598;50.508;10.436;2023-12-07T03:46:42;0.90;99.90
16964;DHT22;8598;50.508;10.436;2023-12-07T03:49:08;1.00;99.90
16964;DHT22;8598;50.508;10.436;2023-12-07T03:51:35;1.00;99.90
16964;DHT22;8598;50.508;10.436;2023-12-07T03:54:04;1.00;99.90
16964;DHT22;8598;50.508;10.436;2023-12-07T03:56:32;1.00;99.90
16964;DHT22;8598;50.508;10.436;2023-12-07T03:58:59;1.00;99.90
16964;DHT22;8598;50.508;10.436;2023-12-07T04:01:26;1.10;99.90
16964;DHT22;8598;50.508;10.436;2023-12-07T04:03:54;1.00;99.90
16964;DHT22;8598;50.508;10.436;2023-12-07T04:06:22;1.00;99.90
16964;DHT22;8598;50.508;10.436;2023-12-07T04:08:49;1.00;99.90
16964;DHT22;8598;50.508;10.436;2023-12-07T04:11:17;1.00;99.90
16964;DHT22;8598;50.508;10.436;2023-12-07T04:13:44;1.00;99.90
16964;DHT22;8598;50.508;10.436;2023-12-07T04:16:11;1.00;99.90
16964;DHT22;8598;50.508;10.436;2023-12-07T04:18:38;0.90;99.90
16964;DHT22;8598;50.508;10.436;2023-12-07T04:21:05;1.00;99.90
16964;DHT22;8598;50.508;10.436;2023-12-07T04:23:32;0.90;99.90
16964;DHT22;8598;50.508;10.436;2023-12-07T04:25:59;0.90;99.90
16964;DHT22;8598;50.508;10.436;2023-12-07T04:28:27;0.90;99.90
16964;DHT22;8598;50.508;10.436;2023-12-07T04:30:53;0.90;99.90
16964;DHT22;8598;50.508;10.436;2023-12-07T04:33:20;0.90;99.90
16964;DHT22;8598;50.508;10.436;2023-12-07T04:35:47;0.90;99.90
16964;DHT22;8598;50.508;10.436;2023-12-07T04:38:14;0.90;99.90
16964;DHT22;8598;50.508;10.436;2023-12-07T04:40:40;0.90;99.90
16964;DHT22;8598;50.508;10.436;2023-12-07T04:43:07;0.90;99.90
16964;DHT22;8598;50.508;10.436;2023-12-07T04:45:35;0.90;99.90
16964;DHT22;8598;50.508;10.436;2023-12-07T04:48:01;0.90;99.90
16964;DHT22;8598;50.508;10.436;2023-12-07T04:50:29;0.90;99.90
16964;DHT22;8598;50.508;10.436;2023-12-07T04:52:55;1.50;99.90
16964;DHT22;8598;50.508;10.436;2023-12-07T04:55:22;0.90;99.90
16964;DHT22;8598;50.508;10.436;2023-12-07T04:57:49;0.90;99.90
16964;DHT22;8598;50.508;10.436;2023-12-07T05:00:16;1.50;99.90
16964;DHT22;8598;50.508;10.436;2023-12-07T05:02:44;0.90;99.90
16964;DHT22;8598;50.508;10.436;2023-12-07T05:05:11;0.90;99.90
16964;DHT22;8598;50.508;10.436;2023-12-07T05:07:38;0.90;99.90
16964;DHT22;8598;50.508;10.436;2023-12-07T05:10:05;0.90;99.90
16964;DHT22;8598;50.508;10.436;2023-12-07T05:12:32;0.90;99.90
16964;DHT22;8598;50.508;10.436;2023-12-07T05:14:59;0.90;99.90
16964;DHT22;8598;50.508;10.436;2023-12-07T05:17:25;0.90;99.90
16964;DHT22;8598;50.508;10.436;2023-12-07T05:19:53;0.90;99.90
16964;DHT22;8598;50.508;10.436;2023-12-07T05:22:20;0.90;99.90
16964;DHT22;8598;50.508;10.436;2023-12-07T05:24:46;0.90;99.90
16964;DHT22;8598;50.508;10.436;2023-12-07T05:27:14;0.90;99.90
16964;DHT22;8598;50.508;10.436;2023-12-07T05:29:40;0.90;99.90
16964;DHT22;8598;50.508;10.436;2023-12-07T05:32:07;0.90;99.90
16964;DHT22;8598;50.508;10.436;2023-12-07T05:34:34;0.80;99.90
16964;DHT22;8598;50.508;10.436;2023-12-07T05:37:02;1.30;99.90
16964;DHT22;8598;50.508;10.436;2023-12-07T05:39:29;0.80;99.90
16964;DHT22;8598;50.508;10.436;2023-12-07T05:41:56;0.80;99.90
16964;DHT22;8598;50.508;10.436;2023-12-07T05:44:22;0.80;99.90
16964;DHT22;8598;50.508;10.436;2023-12-07T05:46:49;0.90;99.90
16964;DHT22;8598;50.508;10.436;2023-12-07T05:49:16;1.60;99.90
16964;DHT22;8598;50.508;10.436;2023-12-07T05:51:42;0.90;99.90
16964;DHT22;8598;50.508;10.436;2023-12-07T05:54:10;0.90;99.90
16964;DHT22;8598;50.508;10.436;2023-12-07T05:56:37;0.90;99.90
16964;DHT22;8598;50.508;10.436;2023-12-07T05:59:03;0.90;99.90
16964;DHT22;8598;50.508;10.436;2023-12-07T06:01:30;0.90;99.90
16964;DHT22;8598;50.508;10.436;2023-12-07T06:03:57;0.90;99.90
16964;DHT22;8598;50.508;10.436;2023-12-07T06:06:24;0.90;99.90
16964;DHT22;8598;50.508;10.436;2023-12-07T06:08:50;0.90;99.90
16964;DHT22;8598;50.508;10.436;2023-12-07T06:11:18;0.90;99.90
16964;DHT22;8598;50.508;10.436;2023-12-07T06:13:45;0.90;99.90
16964;DHT22;8598;50.508;10.436;2023-12-07T06:16:12;0.90;99.90
16964;DHT22;8598;50.508;10.436;2023-12-07T06:18:40;0.90;99.90
16964;DHT22;8598;50.508;10.436;2023-12-07T06:21:06;1.30;99.90
16964;DHT22;8598;50.508;10.436;2023-12-07T06:23:33;1.00;99.90
16964;DHT22;8598;50.508;10.436;2023-12-07T06:26:01;1.00;99.90
16964;DHT22;8598;50.508;10.436;2023-12-07T06:28:29;1.00;99.90
16964;DHT22;8598;50.508;10.436;2023-12-07T06:30:57;1.00;99.90
16964;DHT22;8598;50.508;10.436;2023-12-07T06:33:24;1.00;99.90
16964;DHT22;8598;50.508;10.436;2023-12-07T06:35:50;1.10;99.90
16964;DHT22;8598;50.508;10.436;2023-12-07T06:38:17;1.00;99.90
16964;DHT22;8598;50.508;10.436;2023-12-07T06:40:45;1.00;99.90
16964;DHT22;8598;50.508;10.436;2023-12-07T06:43:12;1.00;99.90
16964;DHT22;8598;50.508;10.436;2023-12-07T06:45:40;1.00;99.90
16964;DHT22;8598;50.508;10.436;2023-12-07T06:48:07;1.00;99.90
16964;DHT22;8598;50.508;10.436;2023-12-07T06:50:34;1.00;99.90
16964;DHT22;8598;50.508;10.436;2023-12-07T06:53:00;1.00;99.90
16964;DHT22;8598;50.508;10.436;2023-12-07T06:55:27;1.00;99.90
16964;DHT22;8598;50.508;10.436;2023-12-07T06:57:54;1.00;99.90
16964;DHT22;8598;50.508;10.436;2023-12-07T07:00:22;1.00;99.90
16964;DHT22;8598;50.508;10.436;2023-12-07T07:02:51;2.00;99.90
16964;DHT22;8598;50.508;10.436;2023-12-07T07:05:17;1.00;99.90
16964;DHT22;8598;50.508;10.436;2023-12-07T07:07:45;2.00;99.90
16964;DHT22;8598;50.508;10.436;2023-12-07T07:10:12;1.00;99.90
16964;DHT22;8598;50.508;10.436;2023-12-07T07:12:39;1.00;99.90
16964;DHT22;8598;50.508;10.436;2023-12-07T07:15:07;1.00;99.90
16964;DHT22;8598;50.508;10.436;2023-12-07T07:17:34;1.00;99.90
16964;DHT22;8598;50.508;10.436;2023-12-07T07:20:02;1.00;99.90
16964;DHT22;8598;50.508;10.436;2023-12-07T07:22:29;1.00;99.90
16964;DHT22;8598;50.508;10.436;2023-12-07T07:24:55;1.00;99.90
16964;DHT22;8598;50.508;10.436;2023-12-07T07:27:22;1.00;99.90
16964;DHT22;8598;50.508;10.436;2023-12-07T07:29:48;0.90;99.90
16964;DHT22;8598;50.508;10.436;2023-12-07T07:32:15;0.90;99.90
16964;DHT22;8598;50.508;10.436;2023-12-07T07:34:42;0.90;99.90
16964;DHT22;8598;50.508;10.436;2023-12-07T07:37:10;0.90;99.90
16964;DHT22;8598;50.508;10.436;2023-12-07T07:39:36;0.90;99.90
16964;DHT22;8598;50.508;10.436;2023-12-07T07:42:03;1.00;99.90
16964;DHT22;8598;50.508;10.436;2023-12-07T07:44:30;1.00;99.90
16964;DHT22;8598;50.508;10.436;2023-12-07T07:46:56;1.00;99.90
16964;DHT22;8598;50.508;10.436;2023-12-07T07:49:23;1.10;99.90
16964;DHT22;8598;50.508;10.436;2023-12-07T07:51:50;1.10;99.90
16964;DHT22;8598;50.508;10.436;2023-12-07T07:54:18;1.10;99.90
16964;DHT22;8598;50.508;10.436;2023-12-07T07:56:45;1.10;99.90
16964;DHT22;8598;50.508;10.436;2023-12-07T07:59:12;1.20;99.90
16964;DHT22;8598;50.508;10.436;2023-12-07T08:01:38;1.30;99.90
16964;DHT22;8598;50.508;10.436;2023-12-07T08:04:05;1.30;99.90
16964;DHT22;8598;50.508;10.436;2023-12-07T08:06:31;1.30;99.90
16964;DHT22;8598;50.508;10.436;2023-12-07T08:08:58;1.40;99.90
16964;DHT22;8598;50.508;10.436;2023-12-07T08:11:26;1.90;99.90
16964;DHT22;8598;50.508;10.436;2023-12-07T08:13:53;1.40;99.90
16964;DHT22;8598;50.508;10.436;2023-12-07T08:16:20;1.40;99.90
16964;DHT22;8598;50.508;10.436;2023-12-07T08:18:46;1.40;99.90
16964;DHT22;8598;50.508;10.436;2023-12-07T08:21:19;1.50;99.90
16964;DHT22;8598;50.508;10.436;2023-12-07T08:23:45;1.60;99.90
16964;DHT22;8598;50.508;10.436;2023-12-07T08:26:12;1.60;99.90
16964;DHT22;8598;50.508;10.436;2023-12-07T08:28:41;1.50;99.90
16964;DHT22;8598;50.508;10.436;2023-12-07T08:31:07;1.60;99.90
16964;DHT22;8598;50.508;10.436;2023-12-07T08:33:34;1.50;99.90
16964;DHT22;8598;50.508;10.436;2023-12-07T08:36:01;1.50;99.90
16964;DHT22;8598;50.508;10.436;2023-12-07T08:38:27;1.60;99.90
16964;DHT22;8598;50.508;10.436;2023-12-07T08:40:54;1.60;99.90
16964;DHT22;8598;50.508;10.436;2023-12-07T08:43:22;1.60;99.90
16964;DHT22;8598;50.508;10.436;2023-12-07T08:45:50;1.70;99.90
16964;DHT22;8598;50.508;10.436;2023-12-07T08:48:17;1.60;99.90
16964;DHT22;8598;50.508;10.436;2023-12-07T08:50:44;2.70;99.90
16964;DHT22;8598;50.508;10.436;2023-12-07T08:53:11;1.60;99.90
16964;DHT22;8598;50.508;10.436;2023-12-07T08:55:37;1.60;99.90
16964;DHT22;8598;50.508;10.436;2023-12-07T08:58:05;1.90;99.90
16964;DHT22;8598;50.508;10.436;2023-12-07T09:00:32;1.60;99.90
16964;DHT22;8598;50.508;10.436;2023-12-07T09:03:00;1.60;99.90
16964;DHT22;8598;50.508;10.436;2023-12-07T09:05:27;1.60;99.90
16964;DHT22;8598;50.508;10.436;2023-12-07T09:07:55;1.80;99.90
16964;DHT22;8598;50.508;10.436;2023-12-07T09:10:22;1.60;99.90
16964;DHT22;8598;50.508;10.436;2023-12-07T09:12:49;2.00;99.90
16964;DHT22;8598;50.508;10.436;2023-12-07T09:15:15;1.80;99.90
16964;DHT22;8598;50.508;10.436;2023-12-07T09:17:42;1.80;99.90
16964;DHT22;8598;50.508;10.436;2023-12-07T09:20:11;1.90;99.90
16964;DHT22;8598;50.508;10.436;2023-12-07T09:22:38;2.00;99.90
16964;DHT22;8598;50.508;10.436;2023-12-07T09:25:07;2.10;99.90
16964;DHT22;8598;50.508;10.436;2023-12-07T09:27:34;2.10;99.90
16964;DHT22;8598;50.508;10.436;2023-12-07T09:30:03;2.10;99.90
16964;DHT22;8598;50.508;10.436;2023-12-07T09:32:30;2.20;99.90
16964;DHT22;8598;50.508;10.436;2023-12-07T09:34:57;2.20;99.90
16964;DHT22;8598;50.508;10.436;2023-12-07T09:37:24;3.00;99.90
16964;DHT22;8598;50.508;10.436;2023-12-07T09:39:51;2.40;99.90
16964;DHT22;8598;50.508;10.436;2023-12-07T09:42:18;2.40;99.90
16964;DHT22;8598;50.508;10.436;2023-12-07T09:44:44;2.40;99.90
16964;DHT22;8598;50.508;10.436;2023-12-07T09:47:11;2.70;99.90
16964;DHT22;8598;50.508;10.436;2023-12-07T09:49:39;3.10;99.90
16964;DHT22;8598;50.508;10.436;2023-12-07T09:52:06;2.30;99.90
16964;DHT22;8598;50.508;10.436;2023-12-07T09:54:35;2.20;99.90
16964;DHT22;8598;50.508;10.436;2023-12-07T09:57:03;2.20;99.90
16964;DHT22;8598;50.508;10.436;2023-12-07T09:59:30;2.30;99.90
16964;DHT22;8598;50.508;10.436;2023-12-07T10:01:57;2.40;99.90
16964;DHT22;8598;50.508;10.436;2023-12-07T10:04:24;2.40;99.90
16964;DHT22;8598;50.508;10.436;2023-12-07T10:06:51;2.30;99.90
16964;DHT22;8598;50.508;10.436;2023-12-07T10:09:19;2.30;99.90
16964;DHT22;8598;50.508;10.436;2023-12-07T10:11:48;2.20;99.90
16964;DHT22;8598;50.508;10.436;2023-12-07T10:14:14;2.20;99.90
16964;DHT22;8598;50.508;10.436;2023-12-07T10:16:52;2.70;99.90
16964;DHT22;8598;50.508;10.436;2023-12-07T10:19:21;2.20;99.90
16964;DHT22;8598;50.508;10.436;2023-12-07T10:21:47;2.30;99.90
16964;DHT22;8598;50.508;10.436;2023-12-07T10:24:15;2.20;99.90
16964;DHT22;8598;50.508;10.436;2023-12-07T10:26:43;2.20;99.90
16964;DHT22;8598;50.508;10.436;2023-12-07T10:29:12;2.30;99.90
16964;DHT22;8598;50.508;10.436;2023-12-07T10:31:39;2.00;99.90
16964;DHT22;8598;50.508;10.436;2023-12-07T10:34:06;2.90;99.90
16964;DHT22;8598;50.508;10.436;2023-12-07T10:36:33;2.10;99.90
16964;DHT22;8598;50.508;10.436;2023-12-07T10:38:59;2.20;99.90
16964;DHT22;8598;50.508;10.436;2023-12-07T10:41:26;2.30;99.90
16964;DHT22;8598;50.508;10.436;2023-12-07T10:43:54;3.20;99.90
16964;DHT22;8598;50.508;10.436;2023-12-07T10:46:22;2.50;99.90
16964;DHT22;8598;50.508;10.436;2023-12-07T10:48:51;2.50;99.90
16964;DHT22;8598;50.508;10.436;2023-12-07T10:51:26;2.50;99.90
16964;DHT22;8598;50.508;10.436;2023-12-07T10:53:57;2.70;99.90
16964;DHT22;8598;50.508;10.436;2023-12-07T10:56:28;2.90;99.90
16964;DHT22;8598;50.508;10.436;2023-12-07T10:58:57;2.40;99.90
16964;DHT22;8598;50.508;10.436;2023-12-07T11:01:25;2.50;99.90
16964;DHT22;8598;50.508;10.436;2023-12-07T11:03:53;2.10;99.90
16964;DHT22;8598;50.508;10.436;2023-12-07T11:06:19;2.10;99.90
16964;DHT22;8598;50.508;10.436;2023-12-07T11:08:49;3.00;99.90
16964;DHT22;8598;50.508;10.436;2023-12-07T11:11:21;2.20;99.90
16964;DHT22;8598;50.508;10.436;2023-12-07T11:13:53;2.10;99.90
16964;DHT22;8598;50.508;10.436;2023-12-07T11:16:30;2.00;99.90
16964;DHT22;8598;50.508;10.436;2023-12-07T11:18:57;2.00;99.90
16964;DHT22;8598;50.508;10.436;2023-12-07T11:21:24;2.20;99.90
16964;DHT22;8598;50.508;10.436;2023-12-07T11:23:52;2.20;99.90
16964;DHT22;8598;50.508;10.436;2023-12-07T11:26:19;2.40;99.90
16964;DHT22;8598;50.508;10.436;2023-12-07T11:28:46;2.50;99.90
16964;DHT22;8598;50.508;10.436;2023-12-07T11:31:13;2.60;99.90
16964;DHT22;8598;50.508;10.436;2023-12-07T11:33:41;2.60;99.90
16964;DHT22;8598;50.508;10.436;2023-12-07T11:36:09;2.70;99.90
16964;DHT22;8598;50.508;10.436;2023-12-07T11:38:38;2.70;99.90
16964;DHT22;8598;50.508;10.436;2023-12-07T11:41:05;2.50;99.90
16964;DHT22;8598;50.508;10.436;2023-12-07T11:43:41;2.80;99.90
16964;DHT22;8598;50.508;10.436;2023-12-07T11:46:09;2.70;99.90
16964;DHT22;8598;50.508;10.436;2023-12-07T11:48:36;2.50;99.90
16964;DHT22;8598;50.508;10.436;2023-12-07T11:51:05;2.50;99.90
16964;DHT22;8598;50.508;10.436;2023-12-07T11:53:33;2.50;99.90
16964;DHT22;8598;50.508;10.436;2023-12-07T11:56:02;2.50;99.90
16964;DHT22;8598;50.508;10.436;2023-12-07T11:58:29;2.50;99.90
16964;DHT22;8598;50.508;10.436;2023-12-07T12:00:55;2.40;99.90
16964;DHT22;8598;50.508;10.436;2023-12-07T12:03:23;2.40;99.90
16964;DHT22;8598;50.508;10.436;2023-12-07T12:05:50;2.40;99.90
16964;DHT22;8598;50.508;10.436;2023-12-07T12:08:18;2.30;99.90
16964;DHT22;8598;50.508;10.436;2023-12-07T12:10:45;2.30;99.90
16964;DHT22;8598;50.508;10.436;2023-12-07T12:13:13;2.50;99.90
16964;DHT22;8598;50.508;10.436;2023-12-07T12:15:39;2.70;99.90
16964;DHT22;8598;50.508;10.436;2023-12-07T12:18:08;2.90;99.90
16964;DHT22;8598;50.508;10.436;2023-12-07T12:20:35;2.40;99.90
16964;DHT22;8598;50.508;10.436;2023-12-07T12:23:02;2.30;99.90
16964;DHT22;8598;50.508;10.436;2023-12-07T12:25:30;2.30;99.90
16964;DHT22;8598;50.508;10.436;2023-12-07T12:27:58;2.20;99.90
16964;DHT22;8598;50.508;10.436;2023-12-07T12:30:27;2.20;99.90
16964;DHT22;8598;50.508;10.436;2023-12-07T12:32:55;2.10;99.90
16964;DHT22;8598;50.508;10.436;2023-12-07T12:35:22;2.10;99.90
16964;DHT22;8598;50.508;10.436;2023-12-07T12:37:49;2.20;99.90
16964;DHT22;8598;50.508;10.436;2023-12-07T12:40:17;3.10;99.90
16964;DHT22;8598;50.508;10.436;2023-12-07T12:42:47;2.20;99.90
16964;DHT22;8598;50.508;10.436;2023-12-07T12:45:14;2.30;99.90
16964;DHT22;8598;50.508;10.436;2023-12-07T12:47:41;2.20;99.90
16964;DHT22;8598;50.508;10.436;2023-12-07T12:50:09;2.20;99.90
16964;DHT22;8598;50.508;10.436;2023-12-07T12:52:36;2.20;99.90
16964;DHT22;8598;50.508;10.436;2023-12-07T12:55:07;2.20;99.90
16964;DHT22;8598;50.508;10.436;2023-12-07T12:57:35;2.10;99.90
16964;DHT22;8598;50.508;10.436;2023-12-07T13:00:04;2.50;99.90
16964;DHT22;8598;50.508;10.436;2023-12-07T13:02:32;2.30;99.90
16964;DHT22;8598;50.508;10.436;2023-12-07T13:04:59;2.30;99.90
16964;DHT22;8598;50.508;10.436;2023-12-07T13:07:25;2.30;99.90
16964;DHT22;8598;50.508;10.436;2023-12-07T13:09:52;2.40;99.90
16964;DHT22;8598;50.508;10.436;2023-12-07T13:12:19;2.80;99.90
16964;DHT22;8598;50.508;10.436;2023-12-07T13:14:47;2.30;99.90
16964;DHT22;8598;50.508;10.436;2023-12-07T13:17:15;2.70;99.90
16964;DHT22;8598;50.508;10.436;2023-12-07T13:19:42;2.30;99.90
16964;DHT22;8598;50.508;10.436;2023-12-07T13:22:09;2.50;99.90
16964;DHT22;8598;50.508;10.436;2023-12-07T13:24:36;2.40;99.90
16964;DHT22;8598;50.508;10.436;2023-12-07T13:27:02;2.50;99.90
16964;DHT22;8598;50.508;10.436;2023-12-07T13:29:30;2.50;99.90
16964;DHT22;8598;50.508;10.436;2023-12-07T13:31:57;2.50;99.90
16964;DHT22;8598;50.508;10.436;2023-12-07T13:34:25;2.60;99.90
16964;DHT22;8598;50.508;10.436;2023-12-07T13:36:52;2.50;99.90
16964;DHT22;8598;50.508;10.436;2023-12-07T13:39:19;2.40;99.90
16964;DHT22;8598;50.508;10.436;2023-12-07T13:41:46;2.50;99.90
16964;DHT22;8598;50.508;10.436;2023-12-07T13:44:15;2.50;99.90
16964;DHT22;8598;50.508;10.436;2023-12-07T13:46:43;2.50;99.90
16964;DHT22;8598;50.508;10.436;2023-12-07T13:49:10;3.20;99.90
16964;DHT22;8598;50.508;10.436;2023-12-07T13:51:38;2.70;99.90
16964;DHT22;8598;50.508;10.436;2023-12-07T13:54:05;3.40;99.90
16964;DHT22;8598;50.508;10.436;2023-12-07T13:56:33;3.10;99.90
16964;DHT22;8598;50.508;10.436;2023-12-07T13:58:59;2.90;99.90
16964;DHT22;8598;50.508;10.436;2023-12-07T14:01:26;2.40;99.90
16964;DHT22;8598;50.508;10.436;2023-12-07T14:03:53;2.40;99.90
16964;DHT22;8598;50.508;10.436;2023-12-07T14:06:22;2.30;99.90
16964;DHT22;8598;50.508;10.436;2023-12-07T14:08:51;2.30;99.90
16964;DHT22;8598;50.508;10.436;2023-12-07T14:11:18;2.10;99.90
16964;DHT22;8598;50.508;10.436;2023-12-07T14:13:44;2.00;99.90
16964;DHT22;8598;50.508;10.436;2023-12-07T14:16:11;1.90;99.90
16964;DHT22;8598;50.508;10.436;2023-12-07T14:18:38;1.80;99.90
16964;DHT22;8598;50.508;10.436;2023-12-07T14:21:05;1.70;99.90
16964;DHT22;8598;50.508;10.436;2023-12-07T14:23:32;1.60;99.90
16964;DHT22;8598;50.508;10.436;2023-12-07T14:25:59;1.60;99.90
16964;DHT22;8598;50.508;10.436;2023-12-07T14:28:27;1.50;99.90
16964;DHT22;8598;50.508;10.436;2023-12-07T14:30:55;1.70;99.90
16964;DHT22;8598;50.508;10.436;2023-12-07T14:33:23;1.40;99.90
16964;DHT22;8598;50.508;10.436;2023-12-07T14:35:49;1.40;99.90
16964;DHT22;8598;50.508;10.436;2023-12-07T14:38:16;1.30;99.90
16964;DHT22;8598;50.508;10.436;2023-12-07T14:40:43;1.30;99.90
16964;DHT22;8598;50.508;10.436;2023-12-07T14:43:11;1.40;99.90
16964;DHT22;8598;50.508;10.436;2023-12-07T14:45:37;1.10;99.90
16964;DHT22;8598;50.508;10.436;2023-12-07T14:48:04;1.00;99.90
16964;DHT22;8598;50.508;10.436;2023-12-07T14:50:31;0.90;99.90
16964;DHT22;8598;50.508;10.436;2023-12-07T14:52:58;0.80;99.90
16964;DHT22;8598;50.508;10.436;2023-12-07T14:55:25;0.80;99.90
16964;DHT22;8598;50.508;10.436;2023-12-07T14:57:52;0.80;99.90
16964;DHT22;8598;50.508;10.436;2023-12-07T15:00:20;0.70;99.90
16964;DHT22;8598;50.508;10.436;2023-12-07T15:02:47;0.80;99.90
16964;DHT22;8598;50.508;10.436;2023-12-07T15:05:14;0.80;99.90
16964;DHT22;8598;50.508;10.436;2023-12-07T15:07:40;0.80;99.90
16964;DHT22;8598;50.508;10.436;2023-12-07T15:10:07;0.80;99.90
16964;DHT22;8598;50.508;10.436;2023-12-07T15:12:34;0.80;99.90
16964;DHT22;8598;50.508;10.436;2023-12-07T15:15:01;0.70;99.90
16964;DHT22;8598;50.508;10.436;2023-12-07T15:17:32;0.80;99.90
16964;DHT22;8598;50.508;10.436;2023-12-07T15:19:59;0.70;99.90
16964;DHT22;8598;50.508;10.436;2023-12-07T15:22:26;0.70;99.90
16964;DHT22;8598;50.508;10.436;2023-12-07T15:24:53;0.80;99.90
16964;DHT22;8598;50.508;10.436;2023-12-07T15:27:20;0.70;99.90
16964;DHT22;8598;50.508;10.436;2023-12-07T15:29:46;0.70;99.90
16964;DHT22;8598;50.508;10.436;2023-12-07T15:32:13;0.80;99.90
16964;DHT22;8598;50.508;10.436;2023-12-07T15:34:41;0.80;99.90
16964;DHT22;8598;50.508;10.436;2023-12-07T15:37:08;0.80;99.90
16964;DHT22;8598;50.508;10.436;2023-12-07T15:39:35;0.80;99.90
16964;DHT22;8598;50.508;10.436;2023-12-07T15:42:02;0.80;99.90
16964;DHT22;8598;50.508;10.436;2023-12-07T15:44:29;0.80;99.90